Time,TemperatureF,DewpointF,PressureIn,WindDirection,WindDirectionDegrees,WindSpeedMPH,WindSpeedGustMPH,Humidity,HourlyPrecipIn,Conditions,Clouds,dailyrainin,SoftwareType,DateUTC
2013-02-25 00:14:00,41.3,21.0,30.11,NNE,30,1.0,3.0,45,0.00,,,0.00,weatherlink.com 1.10,2013-02-25 05:14:00,
2013-02-25 00:29:00,41.1,21.0,30.11,NNE,20,3.0,4.0,45,0.00,,,0.00,weatherlink.com 1.10,2013-02-25 05:29:00,
2013-02-25 00:44:00,40.6,21.0,30.10,NNE,13,3.0,6.0,46,0.00,,,0.00,weatherlink.com 1.10,2013-02-25 05:44:00,
2013-02-25 00:59:00,39.8,21.0,30.10,NE,39,3.0,5.0,48,0.00,,,0.00,weatherlink.com 1.10,2013-02-25 05:59:00,
2013-02-25 01:14:00,40.4,21.0,30.11,NE,43,3.0,4.0,46,0.00,,,0.00,weatherlink.com 1.10,2013-02-25 06:14:00,
2013-02-25 01:29:00,41.1,21.0,30.12,NE,46,4.0,6.0,45,0.00,,,0.00,weatherlink.com 1.10,2013-02-25 06:29:00,
2013-02-25 01:44:00,40.3,21.0,30.09,NNE,18,3.0,5.0,46,0.00,,,0.00,weatherlink.com 1.10,2013-02-25 06:44:00,
2013-02-25 01:59:00,39.3,21.0,30.09,NNE,25,3.0,5.0,48,0.00,,,0.00,weatherlink.com 1.10,2013-02-25 06:59:00,
2013-02-25 02:14:00,39.9,21.0,30.10,NE,42,5.0,8.0,48,0.00,,,0.00,weatherlink.com 1.10,2013-02-25 07:14:00,
2013-02-25 02:29:00,39.6,21.0,30.09,NNE,25,3.0,6.0,48,0.00,,,0.00,weatherlink.com 1.10,2013-02-25 07:29:00,
2013-02-25 02:44:00,39.1,21.0,30.08,NNE,23,3.0,7.0,49,0.00,,,0.00,weatherlink.com 1.10,2013-02-25 07:44:00,
2013-02-25 02:59:00,40.2,21.0,30.09,NE,45,6.0,13.0,47,0.00,,,0.00,weatherlink.com 1.10,2013-02-25 07:59:00,
2013-02-25 03:14:00,39.9,21.0,30.09,North,9,5.0,13.0,47,0.00,,,0.00,weatherlink.com 1.10,2013-02-25 08:14:00,
2013-02-25 03:29:00,40.4,21.0,30.09,NE,49,8.0,13.0,46,0.00,,,0.00,weatherlink.com 1.10,2013-02-25 08:29:00,
2013-02-25 03:44:00,40.0,21.0,30.09,NE,36,7.0,12.0,47,0.00,,,0.00,weatherlink.com 1.10,2013-02-25 08:44:00,
2013-02-25 03:59:00,39.5,22.0,30.09,ENE,63,6.0,8.0,49,0.00,,,0.00,weatherlink.com 1.10,2013-02-25 08:59:00,
2013-02-25 04:14:00,39.6,21.0,30.08,NNE,28,4.0,11.0,48,0.00,,,0.00,weatherlink.com 1.10,2013-02-25 09:14:00,
2013-02-25 04:29:00,39.7,21.0,30.08,NE,37,9.0,14.0,47,0.00,,,0.00,weatherlink.com 1.10,2013-02-25 09:29:00,
2013-02-25 04:44:00,39.5,21.0,30.08,East,82,5.0,13.0,48,0.00,,,0.00,weatherlink.com 1.10,2013-02-25 09:44:00,
2013-02-25 04:59:00,39.6,21.0,30.09,NE,49,7.0,14.0,48,0.00,,,0.00,weatherlink.com 1.10,2013-02-25 09:59:00,
2013-02-25 05:14:00,39.5,21.0,30.10,NE,34,9.0,12.0,48,0.00,,,0.00,weatherlink.com 1.10,2013-02-25 10:14:00,
2013-02-25 05:29:00,39.3,21.0,30.09,ENE,58,7.0,12.0,49,0.00,,,0.00,weatherlink.com 1.10,2013-02-25 10:29:00,
2013-02-25 05:44:00,39.1,21.0,30.10,NNE,29,3.0,12.0,49,0.00,,,0.00,weatherlink.com 1.10,2013-02-25 10:44:00,
2013-02-25 05:59:00,38.9,22.0,30.11,NNE,22,2.0,11.0,50,0.00,,,0.00,weatherlink.com 1.10,2013-02-25 10:59:00,
2013-02-25 06:14:00,37.9,22.0,30.11,NNE,20,2.0,6.0,52,0.00,,,0.00,weatherlink.com 1.10,2013-02-25 11:14:00,
2013-02-25 06:29:00,37.2,22.0,30.11,North,4,3.0,8.0,54,0.00,,,0.00,weatherlink.com 1.10,2013-02-25 11:29:00,
2013-02-25 06:44:00,37.5,22.0,30.09,NE,46,6.0,9.0,54,0.00,,,0.00,weatherlink.com 1.10,2013-02-25 11:44:00,
2013-02-25 06:59:00,37.7,22.0,30.10,NNE,32,2.0,8.0,53,0.00,,,0.00,weatherlink.com 1.10,2013-02-25 11:59:00,
2013-02-25 07:14:00,37.4,22.0,30.11,NNE,23,2.0,6.0,54,0.00,,,0.00,weatherlink.com 1.10,2013-02-25 12:14:00,
2013-02-25 07:29:00,37.1,22.0,30.12,NE,37,6.0,6.0,55,0.00,,,0.00,weatherlink.com 1.10,2013-02-25 12:29:00,
2013-02-25 07:44:00,37.3,23.0,30.12,NNE,32,4.0,9.0,57,0.00,,,0.00,weatherlink.com 1.10,2013-02-25 12:44:00,
2013-02-25 08:00:00,36.9,22.0,30.11,NE,46,3.0,8.0,56,0.00,,,0.00,weatherlink.com 1.10,2013-02-25 13:00:00,
2013-02-25 08:15:00,36.9,22.0,30.12,NE,45,5.0,8.0,56,0.00,,,0.00,weatherlink.com 1.10,2013-02-25 13:15:00,
2013-02-25 08:30:00,36.9,23.0,30.12,ENE,63,5.0,6.0,57,0.00,,,0.00,weatherlink.com 1.10,2013-02-25 13:30:00,
2013-02-25 08:45:00,38.1,23.0,30.12,East,84,3.0,8.0,55,0.00,,,0.00,weatherlink.com 1.10,2013-02-25 13:45:00,
2013-02-25 09:00:00,38.5,23.0,30.13,NE,50,5.0,9.0,54,0.00,,,0.00,weatherlink.com 1.10,2013-02-25 14:00:00,
2013-02-25 09:15:00,38.3,24.0,30.12,ENE,68,4.0,4.0,56,0.00,,,0.00,weatherlink.com 1.10,2013-02-25 14:15:00,
2013-02-25 09:30:00,38.4,24.0,30.12,ENE,64,4.0,8.0,56,0.00,,,0.00,weatherlink.com 1.10,2013-02-25 14:30:00,
2013-02-25 09:45:00,39.3,25.0,30.11,East,84,1.0,8.0,56,0.00,,,0.00,weatherlink.com 1.10,2013-02-25 14:45:00,
2013-02-25 10:00:00,40.0,23.0,30.12,ENE,66,3.0,8.0,52,0.00,,,0.00,weatherlink.com 1.10,2013-02-25 15:00:00,
2013-02-25 10:15:00,40.8,25.0,30.13,East,82,2.0,5.0,54,0.00,,,0.00,weatherlink.com 1.10,2013-02-25 15:15:00,
2013-02-25 10:30:00,41.4,26.0,30.12,East,89,1.0,7.0,54,0.00,,,0.00,weatherlink.com 1.10,2013-02-25 15:30:00,
2013-02-25 10:45:00,42.5,25.0,30.11,NE,54,1.0,8.0,51,0.00,,,0.00,weatherlink.com 1.10,2013-02-25 15:45:00,
2013-02-25 11:00:00,42.7,25.0,30.11,ENE,73,3.0,7.0,49,0.00,,,0.00,weatherlink.com 1.10,2013-02-25 16:00:00,
2013-02-25 11:15:00,42.8,25.0,30.10,ENE,59,0.0,9.0,50,0.00,,,0.00,weatherlink.com 1.10,2013-02-25 16:15:00,
2013-02-25 11:30:00,43.7,25.0,30.10,East,89,4.0,7.0,48,0.00,,,0.00,weatherlink.com 1.10,2013-02-25 16:30:00,
2013-02-25 11:45:00,44.6,26.0,30.09,East,98,3.0,6.0,48,0.00,,,0.00,weatherlink.com 1.10,2013-02-25 16:45:00,
2013-02-25 12:00:00,44.6,26.0,30.09,ENE,72,2.0,7.0,48,0.00,,,0.00,weatherlink.com 1.10,2013-02-25 17:00:00,
2013-02-25 12:15:00,45.4,26.0,30.08,East,96,1.0,7.0,47,0.00,,,0.00,weatherlink.com 1.10,2013-02-25 17:15:00,
2013-02-25 12:30:00,45.5,26.0,30.07,East,85,3.0,10.0,47,0.00,,,0.00,weatherlink.com 1.10,2013-02-25 17:30:00,
2013-02-25 12:45:00,48.4,28.0,30.06,East,91,2.0,9.0,45,0.00,,,0.00,weatherlink.com 1.10,2013-02-25 17:45:00,
2013-02-25 13:00:00,50.8,28.0,30.06,SE,137,2.0,11.0,41,0.00,,,0.00,weatherlink.com 1.10,2013-02-25 18:00:00,
2013-02-25 13:15:00,51.9,29.0,30.06,ESE,105,0.0,7.0,41,0.00,,,0.00,weatherlink.com 1.10,2013-02-25 18:15:00,
2013-02-25 13:30:00,53.8,29.0,30.05,NW,307,1.0,6.0,38,0.00,,,0.00,weatherlink.com 1.10,2013-02-25 18:30:00,
2013-02-25 13:45:00,53.2,28.0,30.04,ENE,58,1.0,9.0,38,0.00,,,0.00,weatherlink.com 1.10,2013-02-25 18:45:00,
2013-02-25 14:00:00,53.4,29.0,30.04,East,79,5.0,10.0,39,0.00,,,0.00,weatherlink.com 1.10,2013-02-25 19:00:00,
2013-02-25 14:15:00,53.7,28.0,30.04,ESE,120,6.0,11.0,37,0.00,,,0.00,weatherlink.com 1.10,2013-02-25 19:15:00,
2013-02-25 14:30:00,54.9,29.0,30.03,ENE,77,3.0,9.0,37,0.00,,,0.00,weatherlink.com 1.10,2013-02-25 19:30:00,
2013-02-25 14:45:00,54.9,28.0,30.03,ESE,105,4.0,7.0,36,0.00,,,0.00,weatherlink.com 1.10,2013-02-25 19:45:00,
2013-02-25 15:00:00,55.1,29.0,30.03,ESE,122,7.0,9.0,37,0.00,,,0.00,weatherlink.com 1.10,2013-02-25 20:00:00,
2013-02-25 15:15:00,55.2,28.0,30.02,East,85,2.0,10.0,36,0.00,,,0.00,weatherlink.com 1.10,2013-02-25 20:15:00,
2013-02-25 15:30:00,55.5,29.0,30.00,East,94,7.0,11.0,36,0.00,,,0.00,weatherlink.com 1.10,2013-02-25 20:30:00,
2013-02-25 15:45:00,55.9,29.0,30.00,East,101,6.0,12.0,36,0.00,,,0.00,weatherlink.com 1.10,2013-02-25 20:45:00,
2013-02-25 16:01:00,55.6,29.0,30.00,ESE,105,7.0,11.0,36,0.00,,,0.00,weatherlink.com 1.10,2013-02-25 21:01:00,
2013-02-25 16:16:00,55.3,30.0,29.99,East,93,10.0,10.0,38,0.00,,,0.00,weatherlink.com 1.10,2013-02-25 21:16:00,
2013-02-25 16:31:00,56.5,30.0,29.99,East,86,4.0,11.0,37,0.00,,,0.00,weatherlink.com 1.10,2013-02-25 21:31:00,
2013-02-25 16:46:00,55.3,31.0,29.98,ENE,60,1.0,11.0,39,0.00,,,0.00,weatherlink.com 1.10,2013-02-25 21:46:00,
2013-02-25 17:01:00,55.3,31.0,29.97,East,79,1.0,9.0,39,0.00,,,0.00,weatherlink.com 1.10,2013-02-25 22:01:00,
2013-02-25 17:16:00,55.2,30.0,29.97,East,89,7.0,10.0,39,0.00,,,0.00,weatherlink.com 1.10,2013-02-25 22:16:00,
2013-02-25 17:31:00,55.1,30.0,29.96,East,99,6.0,11.0,39,0.00,,,0.00,weatherlink.com 1.10,2013-02-25 22:31:00,
2013-02-25 17:46:00,55.4,30.0,29.95,ENE,78,6.0,16.0,38,0.00,,,0.00,weatherlink.com 1.10,2013-02-25 22:46:00,
2013-02-25 18:01:00,54.5,30.0,29.94,East,88,5.0,14.0,40,0.00,,,0.00,weatherlink.com 1.10,2013-02-25 23:01:00,
2013-02-25 18:16:00,54.1,31.0,29.94,East,85,8.0,11.0,41,0.00,,,0.00,weatherlink.com 1.10,2013-02-25 23:16:00,
2013-02-25 18:31:00,53.7,31.0,29.94,ENE,74,3.0,11.0,42,0.00,,,0.00,weatherlink.com 1.10,2013-02-25 23:31:00,
2013-02-25 18:46:00,53.5,31.0,29.93,East,99,3.0,9.0,42,0.00,,,0.00,weatherlink.com 1.10,2013-02-25 23:46:00,
2013-02-25 19:01:00,53.1,31.0,29.93,ENE,77,8.0,8.0,43,0.00,,,0.00,weatherlink.com 1.10,2013-02-26 00:01:00,
2013-02-25 19:16:00,52.8,31.0,29.93,East,86,1.0,8.0,43,0.00,,,0.00,weatherlink.com 1.10,2013-02-26 00:16:00,
2013-02-25 19:31:00,52.7,31.0,29.93,ENE,64,5.0,10.0,43,0.00,,,0.00,weatherlink.com 1.10,2013-02-26 00:31:00,
2013-02-25 19:46:00,52.7,31.0,29.92,East,90,4.0,9.0,43,0.00,,,0.00,weatherlink.com 1.10,2013-02-26 00:46:00,
2013-02-25 20:01:00,52.4,30.0,29.92,East,92,5.0,12.0,43,0.00,,,0.00,weatherlink.com 1.10,2013-02-26 01:01:00,
2013-02-25 20:16:00,52.1,30.0,29.93,ENE,76,4.0,9.0,43,0.00,,,0.00,weatherlink.com 1.10,2013-02-26 01:16:00,
2013-02-25 20:31:00,51.9,30.0,29.92,ENE,59,5.0,9.0,43,0.00,,,0.00,weatherlink.com 1.10,2013-02-26 01:31:00,
2013-02-25 20:46:00,51.6,30.0,29.93,East,80,6.0,10.0,44,0.00,,,0.00,weatherlink.com 1.10,2013-02-26 01:46:00,
2013-02-25 21:01:00,51.3,30.0,29.92,NE,53,4.0,10.0,45,0.00,,,0.00,weatherlink.com 1.10,2013-02-26 02:01:00,
2013-02-25 21:16:00,51.0,30.0,29.93,East,87,2.0,10.0,45,0.00,,,0.00,weatherlink.com 1.10,2013-02-26 02:16:00,
2013-02-25 21:31:00,50.5,30.0,29.93,East,84,6.0,11.0,46,0.00,,,0.00,weatherlink.com 1.10,2013-02-26 02:31:00,
2013-02-25 21:46:00,50.1,30.0,29.91,East,80,6.0,12.0,47,0.00,,,0.00,weatherlink.com 1.10,2013-02-26 02:46:00,
2013-02-25 22:01:00,50.0,31.0,29.91,East,89,9.0,11.0,48,0.00,,,0.00,weatherlink.com 1.10,2013-02-26 03:01:00,
2013-02-25 22:16:00,49.7,31.0,29.89,East,98,6.0,11.0,49,0.00,,,0.00,weatherlink.com 1.10,2013-02-26 03:16:00,
2013-02-25 22:31:00,49.7,32.0,29.89,East,81,4.0,12.0,50,0.00,,,0.00,weatherlink.com 1.10,2013-02-26 03:31:00,
2013-02-25 22:46:00,49.8,32.0,29.89,East,93,3.0,11.0,51,0.00,,,0.00,weatherlink.com 1.10,2013-02-26 03:46:00,
2013-02-25 23:01:00,49.6,33.0,29.87,North,6,5.0,10.0,53,0.00,,,0.00,weatherlink.com 1.10,2013-02-26 04:01:00,
2013-02-25 23:16:00,49.8,34.0,29.88,East,94,3.0,10.0,54,0.00,,,0.00,weatherlink.com 1.10,2013-02-26 04:16:00,
2013-02-25 23:31:00,50.0,34.0,29.88,East,91,5.0,9.0,55,0.00,,,0.00,weatherlink.com 1.10,2013-02-26 04:31:00,
2013-02-25 23:46:00,50.1,35.0,29.87,ENE,71,2.0,10.0,56,0.00,,,0.00,weatherlink.com 1.10,2013-02-26 04:46:00,